»·PEaware :: DAL241 KBUR-KSLC

DAL241 :: KBUR-KSLC

FLIGHT INFORMATION

Flight Status: Arrived
Operator:
Delta Air Lines
More flights by this operator :: More flights under this callsign
Pilot: Drew Leevy (13237)
Aircraft: AIRBUS A320
(A320)
More flights by this aircraft type
Origin: KBUR Bob Hope-Burbank
United States
Destination: KSLC Salt Lake City Intl
United States
More flights between these airports :: More routes between these airports
Route: SLAPP1 LAS Q70 BLIPP Q842 WINEN MLF QWENN4
File this flight plan on PilotEdge
Remarks:
Altitude:
(Current/Filed)
35,000ft
Speed:
(Current/Filed)
480kts
Departed: 28-Apr-17 09:08 PM
Arrived: 28-Apr-17 10:32 PM
Distance/Time
Traveled:
498nm/1:24
Distance/Time
To Go:
Arrived

Flight Plot

Page will automatically refresh every two minutes.

Flight plan parsing failed; only flown route is shown


Map Options




Map Legend


Flown Route
Filed Route
Departure Airport
Arrival Airport
Navaid (VOR, NDB)
Fix

Horizontal Profiles

Position Reports

Time Latitude Longitude Heading Altitude Ground
Speed
28-Apr-17 20:37 34.195735 -118.354900 137 785ft 0kts
28-Apr-17 20:38 34.195735 -118.354900 137 785ft 0kts
28-Apr-17 20:39 34.195735 -118.354900 137 785ft 0kts
28-Apr-17 20:40 34.195735 -118.354900 137 785ft 0kts
28-Apr-17 20:41 34.195735 -118.354900 137 785ft 0kts
28-Apr-17 20:42 34.195735 -118.354900 137 785ft 0kts
28-Apr-17 20:43 34.195735 -118.354900 137 785ft 0kts
28-Apr-17 20:44 34.195735 -118.354900 137 785ft 0kts
28-Apr-17 20:45 34.195735 -118.354900 137 785ft 0kts
28-Apr-17 20:46 34.195735 -118.354900 137 785ft 0kts
28-Apr-17 20:47 34.195735 -118.354900 137 785ft 0kts
28-Apr-17 20:48 34.195735 -118.354900 137 785ft 0kts
28-Apr-17 20:49 34.195735 -118.354900 137 785ft 0kts
28-Apr-17 20:50 34.195735 -118.354900 137 785ft 0kts
28-Apr-17 20:51 34.195735 -118.354900 137 785ft 0kts
28-Apr-17 20:52 34.195735 -118.354900 137 785ft 0kts
28-Apr-17 20:53 34.195735 -118.354900 137 785ft 0kts
28-Apr-17 20:54 34.195735 -118.354900 137 785ft 0kts
28-Apr-17 20:55 34.195735 -118.354900 137 785ft 0kts
28-Apr-17 20:56 34.195735 -118.354900 137 785ft 0kts
28-Apr-17 20:57 34.195735 -118.354900 137 785ft 0kts
28-Apr-17 20:58 34.195735 -118.354900 137 785ft 0kts
28-Apr-17 20:59 34.195735 -118.354900 137 785ft 0kts
28-Apr-17 21:00 34.195735 -118.354900 137 785ft 0kts
28-Apr-17 21:01 34.195736 -118.354900 137 785ft 0kts
28-Apr-17 21:02 34.195736 -118.354900 137 785ft 0kts
28-Apr-17 21:03 34.195980 -118.355095 163 785ft 0kts
28-Apr-17 21:04 34.195980 -118.355095 163 785ft 0kts
28-Apr-17 21:05 34.195979 -118.355095 163 785ft 0kts
28-Apr-17 21:06 34.195979 -118.355095 163 785ft 0kts
28-Apr-17 21:07 34.195800 -118.355200 218 785ft 0kts
28-Apr-17 21:08 34.195774 -118.355229 222 785ft 0kts
28-Apr-17 21:09 34.195580 -118.355445 222 785ft 6kts
28-Apr-17 21:10 34.198881 -118.356751 347 785ft 79kts
28-Apr-17 21:11 34.236857 -118.371332 318 2485ft 189kts
28-Apr-17 21:12 34.254312 -118.445999 282 3897ft 251kts
28-Apr-17 21:13 34.267386 -118.528801 282 4686ft 258kts
28-Apr-17 21:14 34.314759 -118.577102 22 7172ft 266kts
28-Apr-17 21:15 34.352252 -118.498497 77 8699ft 313kts
28-Apr-17 21:16 34.374097 -118.400697 58 12335ft 285kts
28-Apr-17 21:17 34.439587 -118.343613 17 14404ft 315kts
28-Apr-17 21:18 34.513483 -118.281921 31 18256ft 343kts
28-Apr-17 21:19 34.595146 -118.200495 33 19257ft 432kts
28-Apr-17 21:20 34.671191 -118.086802 70 22456ft 485kts
28-Apr-17 21:21 34.696799 -117.923098 75 23442ft 506kts
28-Apr-17 21:22 34.704423 -117.762631 81 26846ft 507kts
28-Apr-17 21:23 34.710912 -117.594556 80 29932ft 502kts
28-Apr-17 21:24 34.734702 -117.433468 64 32645ft 480kts
28-Apr-17 21:25 34.774275 -117.282419 63 34894ft 476kts
28-Apr-17 21:26 34.815594 -117.125217 64 34343ft 494kts
28-Apr-17 21:27 34.853873 -116.980041 62 34928ft 476kts
28-Apr-17 21:28 34.893906 -116.827427 63 34930ft 475kts
28-Apr-17 21:29 34.950088 -116.689690 38 34930ft 445kts
28-Apr-17 21:30 35.031823 -116.579109 37 35009ft 442kts
28-Apr-17 21:31 35.112796 -116.472260 37 35005ft 442kts
28-Apr-17 21:32 35.194850 -116.363865 37 34988ft 443kts
28-Apr-17 21:33 35.274882 -116.257501 38 34992ft 444kts
28-Apr-17 21:34 35.358009 -116.146823 38 35001ft 443kts
28-Apr-17 21:35 35.440823 -116.036215 38 35004ft 443kts
28-Apr-17 21:36 35.523599 -115.925298 38 35031ft 443kts
28-Apr-17 21:37 35.606380 -115.814003 38 35029ft 443kts
28-Apr-17 21:38 35.688587 -115.701788 39 35022ft 444kts
28-Apr-17 21:39 35.770400 -115.589145 39 35016ft 444kts
28-Apr-17 21:40 35.851987 -115.476431 39 34982ft 444kts
28-Apr-17 21:41 35.933549 -115.363372 39 35032ft 444kts
28-Apr-17 21:42 36.013700 -115.251757 39 35009ft 446kts
28-Apr-17 21:43 36.095998 -115.139385 32 35003ft 436kts
28-Apr-17 21:44 36.185521 -115.045915 32 34987ft 437kts
28-Apr-17 21:45 36.276412 -114.947891 32 34992ft 437kts
28-Apr-17 21:46 36.367536 -114.849218 32 34998ft 437kts
28-Apr-17 21:47 36.458459 -114.750471 32 35002ft 437kts
28-Apr-17 21:48 36.549194 -114.651639 32 35000ft 437kts
28-Apr-17 21:49 36.639758 -114.552674 32 34995ft 437kts
28-Apr-17 21:50 36.732202 -114.456646 22 34999ft 426kts
28-Apr-17 21:51 36.832417 -114.379353 23 34990ft 427kts
28-Apr-17 21:52 36.931117 -114.301637 24 34988ft 428kts
28-Apr-17 21:53 37.031134 -114.222758 24 34992ft 428kts
28-Apr-17 21:54 37.130415 -114.144315 24 34995ft 435kts
28-Apr-17 21:55 37.231172 -114.064384 24 35001ft 432kts
28-Apr-17 21:56 37.332567 -113.983678 24 35001ft 433kts
28-Apr-17 21:57 37.433417 -113.903141 24 35063ft 433kts
28-Apr-17 21:58 37.534485 -113.822173 24 35057ft 433kts
28-Apr-17 21:59 37.635235 -113.741197 25 35045ft 433kts
28-Apr-17 22:00 37.736294 -113.659704 25 35041ft 434kts
28-Apr-17 22:01 37.837459 -113.577855 25 35044ft 434kts
28-Apr-17 22:02 37.937176 -113.495151 31 35051ft 440kts
28-Apr-17 22:03 38.028582 -113.392090 33 35049ft 443kts
28-Apr-17 22:04 38.116791 -113.291783 34 35054ft 444kts
28-Apr-17 22:05 38.208305 -113.187504 34 35051ft 444kts
28-Apr-17 22:06 38.299322 -113.083339 34 35074ft 443kts
28-Apr-17 22:07 38.396052 -112.995395 15 35071ft 426kts
28-Apr-17 22:08 38.504110 -112.936772 16 35086ft 425kts
28-Apr-17 22:09 38.612503 -112.878788 16 35085ft 426kts
28-Apr-17 22:10 38.721195 -112.820502 16 35078ft 426kts
28-Apr-17 22:11 38.828961 -112.762523 16 35072ft 426kts
28-Apr-17 22:12 38.937503 -112.703666 16 35077ft 426kts
28-Apr-17 22:13 39.045559 -112.645081 16 35014ft 421kts
28-Apr-17 22:14 39.120416 -112.604555 16 32917ft 431kts
28-Apr-17 22:15 39.223168 -112.548744 16 30333ft 435kts
28-Apr-17 22:16 39.334204 -112.487326 18 27167ft 444kts
28-Apr-17 22:17 39.445667 -112.423385 18 24335ft 436kts
28-Apr-17 22:18 39.559004 -112.358160 18 24068ft 452kts
28-Apr-17 22:19 39.670481 -112.293508 19 24073ft 452kts
28-Apr-17 22:20 39.782813 -112.228286 18 23784ft 429kts
28-Apr-17 22:21 39.889327 -112.166483 19 21229ft 416kts
28-Apr-17 22:22 39.991964 -112.106265 20 18821ft 400kts
28-Apr-17 22:23 40.090334 -112.046878 20 16404ft 387kts
28-Apr-17 22:24 40.183826 -111.990336 21 14081ft 375kts
28-Apr-17 22:25 40.277741 -111.939110 5 11433ft 371kts
28-Apr-17 22:26 40.373973 -111.929810 4 10710ft 319kts
28-Apr-17 22:27 40.453166 -111.935890 353 10603ft 269kts
28-Apr-17 22:28 40.528733 -111.944737 353 9204ft 268kts
28-Apr-17 22:29 40.598930 -111.952824 353 7765ft 244kts
28-Apr-17 22:30 40.658029 -111.959648 354 6579ft 185kts
28-Apr-17 22:31 40.703753 -111.964931 354 5667ft 156kts
28-Apr-17 22:32 40.745799 -111.969795 354 4839ft 156kts
28-Apr-17 22:33 40.786382 -111.974478 355 4235ft 109kts
28-Apr-17 22:34 40.792493 -111.976704 257 4235ft 0kts
28-Apr-17 22:35 40.792206 -111.977301 187 4235ft 6kts
28-Apr-17 22:36 40.790119 -111.979421 239 4235ft 12kts
28-Apr-17 22:37 40.789096 -111.980777 228 4235ft 0kts
28-Apr-17 22:38 40.789096 -111.980777 228 4235ft 0kts

Navigation Log

Ident Type
Flight plan parsing failed, navigation log unavailable